createdAt,value
2023-05-09T00:02:12.978Z,3.17
2023-05-09T00:04:42.826Z,3.00
2023-05-09T00:07:11.591Z,3.28
2023-05-09T00:09:40.453Z,3.30
2023-05-09T00:12:09.777Z,3.00
2023-05-09T00:14:40.869Z,3.10
2023-05-09T00:17:09.870Z,2.83
2023-05-09T00:19:39.430Z,3.00
2023-05-09T00:22:09.522Z,2.70
2023-05-09T00:24:38.577Z,2.72
2023-05-09T00:27:07.194Z,2.75
2023-05-09T00:29:36.312Z,2.70
2023-05-09T00:32:05.254Z,2.85
2023-05-09T00:34:34.325Z,3.28
2023-05-09T00:37:02.848Z,3.20
2023-05-09T00:39:31.696Z,3.92
2023-05-09T00:42:00.251Z,2.60
2023-05-09T00:44:29.346Z,3.17
2023-05-09T00:46:57.897Z,3.53
2023-05-09T00:49:27.024Z,2.72
2023-05-09T00:51:56.896Z,2.95
2023-05-09T00:54:26.378Z,3.25
2023-05-09T00:56:54.984Z,3.30
2023-05-09T00:59:24.371Z,3.50
2023-05-09T01:01:52.897Z,3.17
2023-05-09T01:04:21.904Z,3.38
2023-05-09T01:07:31.353Z,3.17
2023-05-09T01:10:29.565Z,3.00
2023-05-09T01:13:14.658Z,3.25
2023-05-09T01:16:35.523Z,3.30
2023-05-09T01:19:37.056Z,3.53
2023-05-09T01:22:09.165Z,3.15
2023-05-09T01:25:30.668Z,3.05
2023-05-09T01:28:35.933Z,2.90
2023-05-09T01:31:05.161Z,3.33
2023-05-09T01:33:34.537Z,2.90
2023-05-09T01:36:08.325Z,3.45
2023-05-09T01:38:38.752Z,2.88
2023-05-09T01:41:07.389Z,3.05
2023-05-09T01:43:36.369Z,2.72
2023-05-09T01:46:06.271Z,2.30
2023-05-09T01:48:36.763Z,2.60
2023-05-09T01:51:05.902Z,2.28
2023-05-09T01:53:35.010Z,2.67
2023-05-09T01:56:04.906Z,2.10
2023-05-09T01:58:34.207Z,2.90
2023-05-09T02:01:02.821Z,2.55
2023-05-09T02:03:34.231Z,2.10
2023-05-09T02:06:02.791Z,2.55
2023-05-09T02:08:32.311Z,2.78
2023-05-09T02:11:02.130Z,2.75
2023-05-09T02:13:31.376Z,2.58
2023-05-09T02:16:00.090Z,2.60
2023-05-09T02:18:29.697Z,2.15
2023-05-09T02:20:58.360Z,2.78
2023-05-09T02:23:27.207Z,2.60
2023-05-09T02:25:55.784Z,2.78
2023-05-09T02:28:25.750Z,2.83
2023-05-09T02:30:54.308Z,2.75
2023-05-09T02:33:23.620Z,2.80
2023-05-09T02:35:52.189Z,2.38
2023-05-09T02:38:21.696Z,2.70
2023-05-09T02:40:52.267Z,2.58
2023-05-09T02:43:22.343Z,2.40
2023-05-09T02:45:51.138Z,2.42
2023-05-09T02:48:20.160Z,2.58
2023-05-09T02:50:48.700Z,2.42
2023-05-09T02:53:17.522Z,2.90
2023-05-09T02:55:46.288Z,2.60
2023-05-09T02:58:15.499Z,2.30
2023-05-09T03:00:45.707Z,2.45
2023-05-09T03:03:18.321Z,2.67
2023-05-09T03:05:47.783Z,2.50
2023-05-09T03:08:16.620Z,2.83
2023-05-09T03:10:45.873Z,2.67
2023-05-09T03:13:15.521Z,2.60
2023-05-09T03:15:44.109Z,2.78
2023-05-09T03:18:14.997Z,2.60
2023-05-09T03:20:43.581Z,2.90
2023-05-09T03:23:12.403Z,2.10
2023-05-09T03:25:41.105Z,2.30
2023-05-09T03:28:09.965Z,2.55
2023-05-09T03:30:38.852Z,2.83
2023-05-09T03:33:11.689Z,2.92
2023-05-09T03:35:40.247Z,2.50
2023-05-09T03:38:10.150Z,2.75
2023-05-09T03:40:39.215Z,2.50
2023-05-09T03:43:11.803Z,2.47
2023-05-09T03:45:40.686Z,2.50
2023-05-09T03:48:12.159Z,1.95
2023-05-09T03:50:46.613Z,2.80
2023-05-09T03:53:17.565Z,2.55
2023-05-09T03:55:48.697Z,2.70
2023-05-09T03:58:19.812Z,2.92
2023-05-09T04:00:49.130Z,2.80
2023-05-09T04:03:23.573Z,2.47
2023-05-09T04:05:54.584Z,3.00
2023-05-09T04:08:32.527Z,2.20
2023-05-09T04:11:02.479Z,2.63
2023-05-09T04:13:33.210Z,2.50
2023-05-09T04:16:05.782Z,2.60
2023-05-09T04:18:36.807Z,2.83
2023-05-09T04:21:06.486Z,3.08
2023-05-09T04:23:35.410Z,2.50
2023-05-09T04:26:04.611Z,3.10
2023-05-09T04:28:33.831Z,2.20
2023-05-09T04:31:03.277Z,2.85
2023-05-09T04:33:33.587Z,3.35
2023-05-09T04:36:04.571Z,2.92
2023-05-09T04:38:33.674Z,2.78
2023-05-09T04:41:03.402Z,2.80
2023-05-09T04:43:32.866Z,3.40
2023-05-09T04:46:01.468Z,3.17
2023-05-09T04:48:30.568Z,3.63
2023-05-09T04:50:59.176Z,3.85
2023-05-09T04:53:28.586Z,3.30
2023-05-09T04:55:58.753Z,3.80
2023-05-09T04:58:27.738Z,3.75
2023-05-09T05:00:58.125Z,3.40
2023-05-09T05:03:27.009Z,3.42
2023-05-09T05:05:56.589Z,3.95
2023-05-09T05:08:25.695Z,3.85
2023-05-09T05:10:55.133Z,3.55
2023-05-09T05:13:24.848Z,3.45
2023-05-09T05:18:28.107Z,3.35
2023-05-09T05:20:56.753Z,3.67
2023-05-09T05:23:27.385Z,3.60
2023-05-09T05:25:57.279Z,3.60
2023-05-09T05:28:26.954Z,3.30
2023-05-09T05:30:55.694Z,3.30
2023-05-09T05:33:24.846Z,3.47
2023-05-09T05:35:54.193Z,4.32
2023-05-09T05:38:24.085Z,3.80
2023-05-09T05:40:56.408Z,3.28
2023-05-09T05:43:26.728Z,3.85
2023-05-09T05:45:56.011Z,3.97
2023-05-09T05:48:26.934Z,3.60
2023-05-09T05:50:56.698Z,3.58
2023-05-09T05:53:30.817Z,3.63
2023-05-09T05:56:01.277Z,3.97
2023-05-09T05:58:31.025Z,3.42
2023-05-09T06:00:59.887Z,3.05
2023-05-09T06:03:28.829Z,3.72
2023-05-09T06:06:01.801Z,3.95
2023-05-09T06:08:31.122Z,3.80
2023-05-09T06:11:01.877Z,3.42
2023-05-09T06:13:30.842Z,3.90
2023-05-09T06:16:18.725Z,3.75
2023-05-09T06:18:51.506Z,3.85
2023-05-09T06:21:23.116Z,4.28
2023-05-09T06:24:07.724Z,3.95
2023-05-09T06:26:38.957Z,3.70
2023-05-09T06:29:08.140Z,3.78
2023-05-09T06:31:39.273Z,4.05
2023-05-09T06:34:08.714Z,4.20
2023-05-09T06:36:37.309Z,4.10
2023-05-09T06:39:06.230Z,4.32
2023-05-09T06:41:34.796Z,4.18
2023-05-09T06:44:03.642Z,4.30
2023-05-09T06:46:32.261Z,3.97
2023-05-09T06:49:02.969Z,4.10
2023-05-09T06:51:31.685Z,4.95
2023-05-09T06:54:00.649Z,3.85
2023-05-09T06:56:29.185Z,3.75
2023-05-09T06:58:58.195Z,4.20
2023-05-09T07:01:27.190Z,3.90
2023-05-09T07:03:56.287Z,4.25
2023-05-09T07:06:24.837Z,4.55
2023-05-09T07:08:53.690Z,4.38
2023-05-09T07:11:22.542Z,4.38
2023-05-09T07:13:51.428Z,4.75
2023-05-09T07:16:23.127Z,3.70
2023-05-09T07:18:52.116Z,4.40
2023-05-09T07:21:20.740Z,4.20
2023-05-09T07:23:49.701Z,3.80
2023-05-09T07:26:18.271Z,4.45
2023-05-09T07:28:47.180Z,4.30
2023-05-09T07:31:15.814Z,3.92
2023-05-09T07:33:44.714Z,4.10
2023-05-09T07:36:15.287Z,3.78
2023-05-09T07:38:44.179Z,3.88
2023-05-09T07:41:12.773Z,3.58
2023-05-09T07:43:41.885Z,3.50
2023-05-09T07:46:10.543Z,4.40
2023-05-09T07:48:40.026Z,4.35
2023-05-09T07:51:08.626Z,3.95
2023-05-09T07:53:37.760Z,3.97
2023-05-09T07:56:09.701Z,4.13
2023-05-09T07:58:38.630Z,4.03
2023-05-09T08:01:07.145Z,4.13
2023-05-09T08:03:36.192Z,3.55
2023-05-09T08:06:04.798Z,4.13
2023-05-09T08:08:33.777Z,4.57
2023-05-09T08:11:02.386Z,4.40
2023-05-09T08:13:31.213Z,3.97
2023-05-09T08:16:00.948Z,4.03
2023-05-09T08:18:29.903Z,4.40
2023-05-09T08:21:00.020Z,4.45
2023-05-09T08:23:30.687Z,4.20
2023-05-09T08:25:59.402Z,3.78
2023-05-09T08:28:31.053Z,3.80
2023-05-09T08:30:59.587Z,4.72
2023-05-09T08:33:28.504Z,4.00
2023-05-09T08:35:57.058Z,4.03
2023-05-09T08:38:26.233Z,4.30
2023-05-09T08:41:01.171Z,3.90
2023-05-09T08:43:30.100Z,4.43
2023-05-09T08:46:08.811Z,3.42
2023-05-09T08:48:40.709Z,4.65
2023-05-09T08:51:10.576Z,4.22
2023-05-09T08:53:39.375Z,3.67
2023-05-09T08:56:08.319Z,3.58
2023-05-09T08:58:37.108Z,4.18
2023-05-09T09:01:07.206Z,3.67
2023-05-09T09:03:36.928Z,4.13
2023-05-09T09:06:07.142Z,3.83
2023-05-09T09:08:36.199Z,3.40
2023-05-09T09:11:05.021Z,4.38
2023-05-09T09:13:35.198Z,3.25
2023-05-09T09:16:04.083Z,3.80
2023-05-09T09:18:33.396Z,4.03
2023-05-09T09:21:07.868Z,3.30
2023-05-09T09:23:37.636Z,3.35
2023-05-09T09:26:06.083Z,3.47
2023-05-09T09:28:35.246Z,4.05
2023-05-09T09:31:03.970Z,3.70
2023-05-09T09:33:36.304Z,3.78
2023-05-09T09:36:04.955Z,3.85
2023-05-09T09:38:40.810Z,3.58
2023-05-09T09:41:11.302Z,4.05
2023-05-09T09:43:40.135Z,3.20
2023-05-09T09:46:10.222Z,3.65
2023-05-09T09:48:39.804Z,3.72
2023-05-09T09:51:11.620Z,4.00
2023-05-09T09:53:44.028Z,4.23
2023-05-09T09:56:12.480Z,4.55
2023-05-09T09:58:41.485Z,3.95
2023-05-09T10:01:14.269Z,4.50
2023-05-09T10:03:45.427Z,3.88
2023-05-09T10:06:15.402Z,3.50
2023-05-09T10:08:47.617Z,4.00
2023-05-09T10:11:16.547Z,4.07
2023-05-09T10:13:45.489Z,3.70
2023-05-09T10:16:14.126Z,3.67
2023-05-09T10:18:43.322Z,4.97
2023-05-09T10:21:14.158Z,4.50
2023-05-09T10:23:47.080Z,5.30
2023-05-09T10:26:27.700Z,5.25
2023-05-09T10:28:57.692Z,4.95
2023-05-09T10:31:27.598Z,6.05
2023-05-09T10:33:56.595Z,6.63
2023-05-09T10:36:25.237Z,8.15
2023-05-09T10:38:55.237Z,8.85
2023-05-09T10:41:24.286Z,7.30
2023-05-09T10:43:57.019Z,6.03
2023-05-09T10:46:27.469Z,6.47
2023-05-09T10:48:56.754Z,5.03
2023-05-09T10:51:25.389Z,5.25
2023-05-09T10:53:56.122Z,6.25
2023-05-09T10:56:27.453Z,6.82
2023-05-09T10:58:56.715Z,6.13
2023-05-09T11:01:37.535Z,7.25
2023-05-09T11:04:13.309Z,6.28
2023-05-09T11:06:55.864Z,5.75
2023-05-09T11:09:33.613Z,5.43
2023-05-09T11:12:05.255Z,5.40
2023-05-09T11:14:41.573Z,4.68
2023-05-09T11:17:22.956Z,5.28
2023-05-09T11:19:52.144Z,5.40
2023-05-09T11:22:22.506Z,5.97
2023-05-09T11:24:54.191Z,5.00
2023-05-09T11:27:24.285Z,6.82
2023-05-09T11:29:57.056Z,5.88
2023-05-09T11:32:31.812Z,5.10
2023-05-09T11:35:30.418Z,5.00
2023-05-09T11:38:04.185Z,6.75
2023-05-09T11:40:34.344Z,6.60
2023-05-09T11:43:03.163Z,5.68
2023-05-09T11:45:33.421Z,6.72
2023-05-09T11:48:03.505Z,5.78
2023-05-09T11:50:32.956Z,5.88
2023-05-09T11:53:01.669Z,6.55
2023-05-09T11:55:31.748Z,6.45
2023-05-09T11:58:00.565Z,5.93
2023-05-09T12:00:29.578Z,5.22
2023-05-09T12:02:58.239Z,5.40
2023-05-09T12:05:27.322Z,5.95
2023-05-09T12:07:55.987Z,5.45
2023-05-09T12:10:24.795Z,5.45
2023-05-09T12:12:55.765Z,5.03
2023-05-09T12:15:25.728Z,6.82
2023-05-09T12:18:08.164Z,6.35
2023-05-09T12:20:52.362Z,5.80
2023-05-09T12:23:20.896Z,5.22
2023-05-09T12:25:56.836Z,8.57
2023-05-09T12:28:25.930Z,7.63
2023-05-09T12:30:54.862Z,7.50
2023-05-09T12:33:23.371Z,8.18
2023-05-09T12:36:06.690Z,5.88
2023-05-09T12:38:35.468Z,6.22
2023-05-09T12:41:10.704Z,6.03
2023-05-09T12:43:50.209Z,5.53
2023-05-09T12:46:20.266Z,5.38
2023-05-09T12:48:49.632Z,5.38
2023-05-09T12:51:21.967Z,5.45
2023-05-09T12:53:50.697Z,5.53
2023-05-09T12:56:20.641Z,4.90
2023-05-09T12:58:53.370Z,4.80
2023-05-09T13:01:25.230Z,4.78
2023-05-09T13:04:04.566Z,4.95
2023-05-09T13:06:35.991Z,4.80
2023-05-09T13:09:08.232Z,4.57
2023-05-09T13:11:38.086Z,5.07
2023-05-09T13:14:06.639Z,4.80
2023-05-09T13:16:35.827Z,4.00
2023-05-09T13:19:05.680Z,4.43
2023-05-09T13:21:35.625Z,4.32
2023-05-09T13:24:07.898Z,4.60
2023-05-09T13:26:36.778Z,4.47
2023-05-09T13:29:05.310Z,4.15
2023-05-09T13:31:34.330Z,4.32
2023-05-09T13:34:02.876Z,4.00
2023-05-09T13:36:33.065Z,4.50
2023-05-09T13:39:01.592Z,4.47
2023-05-09T13:41:36.343Z,4.28
2023-05-09T13:44:06.622Z,3.75
2023-05-09T13:46:35.616Z,4.15
2023-05-09T13:49:04.573Z,3.65
2023-05-09T13:51:33.807Z,4.30
2023-05-09T13:54:02.458Z,3.63
2023-05-09T13:56:31.319Z,3.88
2023-05-09T13:58:59.913Z,4.45
2023-05-09T14:01:28.840Z,4.18
2023-05-09T14:03:57.439Z,3.88
2023-05-09T14:06:26.540Z,4.85
2023-05-09T14:08:55.892Z,4.28
2023-05-09T14:11:25.735Z,3.63
2023-05-09T14:13:54.291Z,3.90
2023-05-09T14:16:23.497Z,4.28
2023-05-09T14:18:52.014Z,3.50
2023-05-09T14:21:20.991Z,4.22
2023-05-09T14:23:49.913Z,4.05
2023-05-09T14:26:19.405Z,3.80
2023-05-09T14:28:48.365Z,3.40
2023-05-09T14:31:18.276Z,3.60
2023-05-09T14:33:46.919Z,3.70
2023-05-09T14:36:16.014Z,3.60
2023-05-09T14:38:47.186Z,4.03
2023-05-09T14:41:16.201Z,3.30
2023-05-09T14:43:44.798Z,3.63
2023-05-09T14:46:13.721Z,3.72
2023-05-09T14:48:42.209Z,3.70
2023-05-09T14:51:12.215Z,3.60
2023-05-09T14:53:42.094Z,3.63
2023-05-09T14:56:12.483Z,3.40
2023-05-09T14:58:41.059Z,3.67
2023-05-09T15:01:10.774Z,3.58
2023-05-09T15:03:39.577Z,4.40
2023-05-09T15:06:08.626Z,4.95
2023-05-09T15:08:37.584Z,4.55
2023-05-09T15:11:08.093Z,5.25
2023-05-09T15:13:37.773Z,4.80
2023-05-09T15:16:06.821Z,5.72
2023-05-09T15:18:35.598Z,4.95
2023-05-09T15:21:04.805Z,4.65
2023-05-09T15:23:33.812Z,5.00
2023-05-09T15:26:03.015Z,4.30
2023-05-09T15:28:31.614Z,4.45
2023-05-09T15:31:00.828Z,4.82
2023-05-09T15:33:29.553Z,4.93
2023-05-09T15:36:00.203Z,5.20
2023-05-09T15:38:28.913Z,5.38
2023-05-09T15:40:57.810Z,5.55
2023-05-09T15:43:26.300Z,5.28
2023-05-09T15:45:55.256Z,5.88
2023-05-09T15:48:24.011Z,5.53
2023-05-09T15:50:53.885Z,5.43
2023-05-09T15:53:23.699Z,5.35
2023-05-09T15:55:52.574Z,5.35
2023-05-09T15:58:21.121Z,5.93
2023-05-09T16:00:50.050Z,4.95
2023-05-09T16:03:19.368Z,4.30
2023-05-09T16:05:48.412Z,4.75
2023-05-09T16:08:17.271Z,6.00
2023-05-09T16:10:49.222Z,5.72
2023-05-09T16:13:18.042Z,5.18
2023-05-09T16:15:48.431Z,5.72
2023-05-09T16:18:17.028Z,6.18
2023-05-09T16:20:45.945Z,5.57
2023-05-09T16:23:14.482Z,5.35
2023-05-09T16:25:45.154Z,5.82
2023-05-09T16:28:13.732Z,6.15
2023-05-09T16:30:43.740Z,5.63
2023-05-09T16:33:13.186Z,5.30
2023-05-09T16:35:42.082Z,4.75
2023-05-09T16:38:10.794Z,4.70
2023-05-09T16:40:39.952Z,4.82
2023-05-09T16:43:08.645Z,4.78
2023-05-09T16:45:38.831Z,5.07
2023-05-09T16:48:07.591Z,4.80
2023-05-09T16:50:38.581Z,5.45
2023-05-09T16:53:07.123Z,5.82
2023-05-09T16:55:36.087Z,5.18
2023-05-09T16:58:04.766Z,5.03
2023-05-09T17:00:34.823Z,5.38
2023-05-09T17:03:03.547Z,4.63
2023-05-09T17:05:32.522Z,4.30
2023-05-09T17:08:01.189Z,4.60
2023-05-09T17:10:30.076Z,4.95
2023-05-09T17:12:58.583Z,5.28
2023-05-09T17:15:28.824Z,4.72
2023-05-09T17:17:57.533Z,5.10
2023-05-09T17:20:27.253Z,4.47
2023-05-09T17:22:56.521Z,5.60
2023-05-09T17:25:25.371Z,5.25
2023-05-09T17:27:53.923Z,5.05
2023-05-09T17:30:23.394Z,5.63
2023-05-09T17:32:52.386Z,5.22
2023-05-09T17:35:22.736Z,5.50
2023-05-09T17:37:51.560Z,4.95
2023-05-09T17:40:21.824Z,5.57
2023-05-09T17:42:50.410Z,4.53
2023-05-09T17:45:19.505Z,4.88
2023-05-09T17:47:48.096Z,5.07
2023-05-09T17:50:17.700Z,5.43
2023-05-09T17:52:46.482Z,5.43
2023-05-09T17:55:15.608Z,7.40
2023-05-09T17:57:44.098Z,7.15
2023-05-09T18:00:14.722Z,8.63
2023-05-09T18:02:43.905Z,9.38
2023-05-09T18:05:13.830Z,8.18
2023-05-09T18:07:42.330Z,7.45
2023-05-09T18:10:11.917Z,6.32
2023-05-09T18:12:40.498Z,5.65
2023-05-09T18:15:24.315Z,6.22
2023-05-09T18:17:54.923Z,5.50
2023-05-09T18:20:23.563Z,5.60
2023-05-09T18:22:53.954Z,5.55
2023-05-09T18:25:22.617Z,4.63
2023-05-09T18:27:51.693Z,4.15
2023-05-09T18:30:22.268Z,4.20
2023-05-09T18:32:51.325Z,4.65
2023-05-09T18:35:20.111Z,4.07
2023-05-09T18:37:49.621Z,3.85
2023-05-09T18:40:18.461Z,3.90
2023-05-09T18:42:47.549Z,3.40
2023-05-09T18:45:16.231Z,3.42
2023-05-09T18:47:46.167Z,3.38
2023-05-09T18:50:15.861Z,3.50
2023-05-09T18:52:46.262Z,2.80
2023-05-09T18:55:15.094Z,3.33
2023-05-09T18:57:43.762Z,3.83
2023-05-09T19:00:13.160Z,3.50
2023-05-09T19:02:42.348Z,3.38
2023-05-09T19:05:11.182Z,3.22
2023-05-09T19:07:40.203Z,3.75
2023-05-09T19:10:08.988Z,3.00
2023-05-09T19:12:37.894Z,3.42
2023-05-09T19:15:06.931Z,3.65
2023-05-09T19:17:36.820Z,4.47
2023-05-09T19:20:06.297Z,3.65
2023-05-09T19:22:36.645Z,3.40
2023-05-09T19:25:05.500Z,3.95
2023-05-09T19:27:34.101Z,3.58
2023-05-09T19:30:04.603Z,3.83
2023-05-09T19:32:33.216Z,3.65
2023-05-09T19:35:01.581Z,3.80
2023-05-09T19:37:30.742Z,4.25
2023-05-09T19:39:59.101Z,5.20
2023-05-09T19:42:27.722Z,4.00
2023-05-09T19:44:55.983Z,3.97
2023-05-09T19:47:26.041Z,4.43
2023-05-09T19:49:54.905Z,4.22
2023-05-09T19:52:23.603Z,4.60
2023-05-09T19:54:52.417Z,4.47
2023-05-09T19:57:21.951Z,4.93
2023-05-09T19:59:50.293Z,4.65
2023-05-09T20:02:20.033Z,4.80
2023-05-09T20:04:50.241Z,5.00
2023-05-09T20:07:19.031Z,4.00
2023-05-09T20:09:47.327Z,4.78
2023-05-09T20:12:17.167Z,4.82
2023-05-09T20:14:45.459Z,8.73
2023-05-09T20:17:14.084Z,6.45
2023-05-09T20:19:42.372Z,6.68
2023-05-09T20:22:11.432Z,7.13
2023-05-09T20:24:39.719Z,6.53
2023-05-09T20:27:10.493Z,5.50
2023-05-09T20:29:39.913Z,5.32
2023-05-09T20:32:08.689Z,4.88
2023-05-09T20:34:37.444Z,5.05
2023-05-09T20:37:07.030Z,4.60
2023-05-09T20:39:35.367Z,4.28
2023-05-09T20:42:06.151Z,4.32
2023-05-09T20:44:34.392Z,4.30
2023-05-09T20:47:03.146Z,3.53
2023-05-09T20:49:31.864Z,3.83
2023-05-09T20:52:01.357Z,3.63
2023-05-09T20:54:31.344Z,4.82
2023-05-09T20:57:00.373Z,4.47
2023-05-09T20:59:29.523Z,3.95
2023-05-09T21:01:58.557Z,3.70
2023-05-09T21:04:26.860Z,3.53
2023-05-09T21:06:56.928Z,3.58
2023-05-09T21:09:25.795Z,4.32
2023-05-09T21:11:54.526Z,5.00
2023-05-09T21:14:23.373Z,4.00
2023-05-09T21:16:55.119Z,4.55
2023-05-09T21:19:24.083Z,4.25
2023-05-09T21:21:53.084Z,4.65
2023-05-09T21:24:21.916Z,4.50
2023-05-09T21:26:51.942Z,4.25
2023-05-09T21:29:20.581Z,3.97
2023-05-09T21:31:49.410Z,4.45
2023-05-09T21:34:18.882Z,3.97
2023-05-09T21:36:47.657Z,3.22
2023-05-09T21:39:16.182Z,3.40
2023-05-09T21:41:45.772Z,3.17
2023-05-09T21:44:15.252Z,3.55
2023-05-09T21:46:46.952Z,4.00
2023-05-09T21:49:18.527Z,3.30
2023-05-09T21:51:47.520Z,3.17
2023-05-09T21:54:16.180Z,3.08
2023-05-09T21:56:45.065Z,3.25
2023-05-09T21:59:14.056Z,3.40
2023-05-09T22:01:45.708Z,3.58
2023-05-09T22:04:15.100Z,3.50
2023-05-09T22:06:44.089Z,3.22
2023-05-09T22:09:12.728Z,3.47
2023-05-09T22:11:41.623Z,3.67
2023-05-09T22:14:10.539Z,3.05
2023-05-09T22:16:39.354Z,3.33
2023-05-09T22:19:08.681Z,3.10
2023-05-09T22:21:37.501Z,3.28
2023-05-09T22:24:08.072Z,3.83
2023-05-09T22:26:36.932Z,3.03
2023-05-09T22:29:07.032Z,3.40
2023-05-09T22:31:36.069Z,3.67
2023-05-09T22:34:04.887Z,3.60
2023-05-09T22:36:33.715Z,3.60
2023-05-09T22:39:02.227Z,3.25
2023-05-09T22:41:30.994Z,3.47
2023-05-09T22:43:59.576Z,3.20
2023-05-09T22:46:28.397Z,3.00
2023-05-09T22:48:56.977Z,3.38
2023-05-09T22:51:25.875Z,3.22
2023-05-09T22:53:54.419Z,3.53
2023-05-09T22:56:23.241Z,3.85
2023-05-09T22:58:51.720Z,3.15
2023-05-09T23:01:20.601Z,3.63
2023-05-09T23:03:49.245Z,3.30
2023-05-09T23:06:18.111Z,3.22
2023-05-09T23:08:46.683Z,3.20
2023-05-09T23:11:15.515Z,2.78
2023-05-09T23:13:44.055Z,3.45
2023-05-09T23:16:12.978Z,2.95
2023-05-09T23:18:41.531Z,3.28
2023-05-09T23:21:11.491Z,3.70
2023-05-09T23:23:39.982Z,3.22
2023-05-09T23:26:10.313Z,3.00
2023-05-09T23:28:38.919Z,3.33
2023-05-09T23:31:07.794Z,3.13
2023-05-09T23:33:36.464Z,3.25
2023-05-09T23:36:05.545Z,3.25
2023-05-09T23:38:34.054Z,2.97
2023-05-09T23:41:02.919Z,3.03
2023-05-09T23:43:31.432Z,2.88
2023-05-09T23:46:00.258Z,2.90
2023-05-09T23:48:28.846Z,2.78
2023-05-09T23:50:57.715Z,2.80
2023-05-09T23:53:26.498Z,2.60
2023-05-09T23:55:55.361Z,2.90
2023-05-09T23:58:23.948Z,3.45
